Home

Weather

KSLC Current Conditions

KSLC 241754Z 17006KT 10SM FEW090 FEW130 BKN170 BKN230 32/08 A3001 RMK AO2 SLP094 VIRGA DSNT NE AND NW T03220078 10322 20233 58004

KSLC Aviation Forecast

TAF KSLC 241723Z 2418/2524 15006KT P6SM SCT100 BKN150 FM241830 32008KT P6SM SCT100 BKN150 FM250200 16010KT P6SM VCSH SCT080 BKN100 FM251900 32008KT P6SM VCSH SCT080 BKN120


90° F
Mostly Cloudy
Mostly Cloudy

Partly Cloudy
Monday
Partly Cloudy
High 97°/Low 72°
20%
Chance of a Thunderstorm
Tuesday
Chance of a Thunderstorm
High 85°/Low 70°
40%
Partly Cloudy
Wednesday
Partly Cloudy
High 90°/Low 70°
20%
Clear
Thursday
Clear
High 92°/Low 70°
20%